sensor_id;sensor_type;location;lat;lon;timestamp;P1;durP1;ratioP1;P2;durP2;ratioP2
17369;SDS011;8802;52.402;4.920;2023-05-20T00:01:20;8.20;;;4.30;;
17369;SDS011;8802;52.402;4.920;2023-05-20T00:03:46;8.02;;;5.00;;
17369;SDS011;8802;52.402;4.920;2023-05-20T00:06:13;7.82;;;4.13;;
17369;SDS011;8802;52.402;4.920;2023-05-20T00:08:41;7.32;;;4.32;;
17369;SDS011;8802;52.402;4.920;2023-05-20T00:11:08;9.80;;;4.72;;
17369;SDS011;8802;52.402;4.920;2023-05-20T00:13:35;8.77;;;4.00;;
17369;SDS011;8802;52.402;4.920;2023-05-20T00:16:04;8.75;;;4.28;;
17369;SDS011;8802;52.402;4.920;2023-05-20T00:18:31;7.00;;;4.45;;
17369;SDS011;8802;52.402;4.920;2023-05-20T00:20:58;9.63;;;4.30;;
17369;SDS011;8802;52.402;4.920;2023-05-20T00:23:24;7.20;;;4.15;;
17369;SDS011;8802;52.402;4.920;2023-05-20T00:25:53;9.13;;;4.63;;
17369;SDS011;8802;52.402;4.920;2023-05-20T00:28:19;9.82;;;4.97;;
17369;SDS011;8802;52.402;4.920;2023-05-20T00:30:47;8.88;;;4.88;;
17369;SDS011;8802;52.402;4.920;2023-05-20T00:33:14;9.13;;;4.93;;
17369;SDS011;8802;52.402;4.920;2023-05-20T00:35:41;6.82;;;4.82;;
17369;SDS011;8802;52.402;4.920;2023-05-20T00:38:08;7.40;;;4.82;;
17369;SDS011;8802;52.402;4.920;2023-05-20T00:40:35;8.60;;;5.30;;
17369;SDS011;8802;52.402;4.920;2023-05-20T00:43:03;7.90;;;4.85;;
17369;SDS011;8802;52.402;4.920;2023-05-20T00:45:30;10.27;;;5.18;;
17369;SDS011;8802;52.402;4.920;2023-05-20T00:47:57;6.78;;;4.72;;
17369;SDS011;8802;52.402;4.920;2023-05-20T00:50:26;7.38;;;4.97;;
17369;SDS011;8802;52.402;4.920;2023-05-20T00:52:53;7.90;;;5.00;;
17369;SDS011;8802;52.402;4.920;2023-05-20T00:55:20;8.80;;;4.82;;
17369;SDS011;8802;52.402;4.920;2023-05-20T00:57:47;8.00;;;4.90;;
17369;SDS011;8802;52.402;4.920;2023-05-20T01:00:16;6.13;;;4.50;;
17369;SDS011;8802;52.402;4.920;2023-05-20T01:02:43;9.88;;;4.70;;
17369;SDS011;8802;52.402;4.920;2023-05-20T01:05:10;11.25;;;4.93;;
17369;SDS011;8802;52.402;4.920;2023-05-20T01:07:37;8.30;;;4.85;;
17369;SDS011;8802;52.402;4.920;2023-05-20T01:10:04;6.72;;;4.00;;
17369;SDS011;8802;52.402;4.920;2023-05-20T01:12:34;6.15;;;5.03;;
17369;SDS011;8802;52.402;4.920;2023-05-20T01:15:04;7.88;;;4.80;;
17369;SDS011;8802;52.402;4.920;2023-05-20T01:17:35;8.65;;;4.50;;
17369;SDS011;8802;52.402;4.920;2023-05-20T01:20:05;7.70;;;4.88;;
17369;SDS011;8802;52.402;4.920;2023-05-20T01:22:36;9.20;;;4.65;;
17369;SDS011;8802;52.402;4.920;2023-05-20T01:25:04;6.25;;;4.18;;
17369;SDS011;8802;52.402;4.920;2023-05-20T01:27:31;9.00;;;4.70;;
17369;SDS011;8802;52.402;4.920;2023-05-20T01:29:58;8.85;;;4.47;;
17369;SDS011;8802;52.402;4.920;2023-05-20T01:32:26;8.35;;;4.13;;
17369;SDS011;8802;52.402;4.920;2023-05-20T01:34:57;7.28;;;4.47;;
17369;SDS011;8802;52.402;4.920;2023-05-20T01:37:25;6.65;;;4.28;;
17369;SDS011;8802;52.402;4.920;2023-05-20T01:39:55;8.63;;;4.38;;
17369;SDS011;8802;52.402;4.920;2023-05-20T01:42:22;6.28;;;4.38;;
17369;SDS011;8802;52.402;4.920;2023-05-20T01:44:51;7.43;;;4.40;;
17369;SDS011;8802;52.402;4.920;2023-05-20T01:47:18;8.25;;;4.28;;
17369;SDS011;8802;52.402;4.920;2023-05-20T01:49:45;7.75;;;4.90;;
17369;SDS011;8802;52.402;4.920;2023-05-20T01:52:13;6.07;;;3.83;;
17369;SDS011;8802;52.402;4.920;2023-05-20T01:54:40;6.57;;;4.35;;
17369;SDS011;8802;52.402;4.920;2023-05-20T01:57:08;6.20;;;3.92;;
17369;SDS011;8802;52.402;4.920;2023-05-20T01:59:35;6.55;;;3.45;;
17369;SDS011;8802;52.402;4.920;2023-05-20T02:02:02;6.05;;;4.68;;
17369;SDS011;8802;52.402;4.920;2023-05-20T02:04:29;7.07;;;4.07;;
17369;SDS011;8802;52.402;4.920;2023-05-20T02:06:56;7.57;;;5.40;;
17369;SDS011;8802;52.402;4.920;2023-05-20T02:09:23;7.82;;;4.70;;
17369;SDS011;8802;52.402;4.920;2023-05-20T02:11:50;7.22;;;4.40;;
17369;SDS011;8802;52.402;4.920;2023-05-20T02:14:18;7.32;;;4.55;;
17369;SDS011;8802;52.402;4.920;2023-05-20T02:16:45;7.88;;;4.60;;
17369;SDS011;8802;52.402;4.920;2023-05-20T02:19:12;6.22;;;4.88;;
17369;SDS011;8802;52.402;4.920;2023-05-20T02:21:43;7.28;;;4.93;;
17369;SDS011;8802;52.402;4.920;2023-05-20T02:24:11;9.30;;;4.70;;
17369;SDS011;8802;52.402;4.920;2023-05-20T02:26:39;6.85;;;4.90;;
17369;SDS011;8802;52.402;4.920;2023-05-20T02:29:08;5.32;;;4.40;;
17369;SDS011;8802;52.402;4.920;2023-05-20T02:31:36;8.43;;;4.60;;
17369;SDS011;8802;52.402;4.920;2023-05-20T02:34:03;6.72;;;4.40;;
17369;SDS011;8802;52.402;4.920;2023-05-20T02:36:30;8.77;;;5.10;;
17369;SDS011;8802;52.402;4.920;2023-05-20T02:38:57;8.00;;;4.80;;
17369;SDS011;8802;52.402;4.920;2023-05-20T02:41:25;8.38;;;4.47;;
17369;SDS011;8802;52.402;4.920;2023-05-20T02:43:52;9.25;;;5.00;;
17369;SDS011;8802;52.402;4.920;2023-05-20T02:46:19;6.15;;;4.13;;
17369;SDS011;8802;52.402;4.920;2023-05-20T02:48:47;6.32;;;3.67;;
17369;SDS011;8802;52.402;4.920;2023-05-20T02:51:14;5.63;;;4.55;;
17369;SDS011;8802;52.402;4.920;2023-05-20T02:53:41;9.30;;;4.93;;
17369;SDS011;8802;52.402;4.920;2023-05-20T02:56:07;8.60;;;4.72;;
17369;SDS011;8802;52.402;4.920;2023-05-20T02:58:35;7.57;;;4.05;;
17369;SDS011;8802;52.402;4.920;2023-05-20T03:01:02;8.07;;;4.45;;
17369;SDS011;8802;52.402;4.920;2023-05-20T03:03:28;6.68;;;4.18;;
17369;SDS011;8802;52.402;4.920;2023-05-20T03:05:57;5.10;;;4.53;;
17369;SDS011;8802;52.402;4.920;2023-05-20T03:08:24;6.47;;;4.43;;
17369;SDS011;8802;52.402;4.920;2023-05-20T03:10:51;6.45;;;4.10;;
17369;SDS011;8802;52.402;4.920;2023-05-20T03:13:17;9.18;;;4.28;;
17369;SDS011;8802;52.402;4.920;2023-05-20T03:15:44;6.07;;;4.32;;
17369;SDS011;8802;52.402;4.920;2023-05-20T03:18:11;7.20;;;4.10;;
17369;SDS011;8802;52.402;4.920;2023-05-20T03:20:38;7.93;;;4.53;;
17369;SDS011;8802;52.402;4.920;2023-05-20T03:23:06;8.35;;;4.70;;
17369;SDS011;8802;52.402;4.920;2023-05-20T03:25:34;7.00;;;4.20;;
17369;SDS011;8802;52.402;4.920;2023-05-20T03:28:01;6.13;;;4.28;;
17369;SDS011;8802;52.402;4.920;2023-05-20T03:30:28;4.45;;;3.10;;
17369;SDS011;8802;52.402;4.920;2023-05-20T03:32:55;5.25;;;3.78;;
17369;SDS011;8802;52.402;4.920;2023-05-20T03:35:22;7.63;;;4.03;;
17369;SDS011;8802;52.402;4.920;2023-05-20T03:37:49;6.50;;;4.05;;
17369;SDS011;8802;52.402;4.920;2023-05-20T03:40:18;6.72;;;3.72;;
17369;SDS011;8802;52.402;4.920;2023-05-20T03:42:46;8.30;;;3.70;;
17369;SDS011;8802;52.402;4.920;2023-05-20T03:45:13;6.78;;;3.60;;
17369;SDS011;8802;52.402;4.920;2023-05-20T03:47:41;4.50;;;3.97;;
17369;SDS011;8802;52.402;4.920;2023-05-20T03:50:08;4.50;;;3.63;;
17369;SDS011;8802;52.402;4.920;2023-05-20T03:52:35;6.35;;;4.05;;
17369;SDS011;8802;52.402;4.920;2023-05-20T03:55:02;6.10;;;3.78;;
17369;SDS011;8802;52.402;4.920;2023-05-20T03:57:31;7.03;;;4.03;;
17369;SDS011;8802;52.402;4.920;2023-05-20T03:59:58;4.78;;;4.25;;
17369;SDS011;8802;52.402;4.920;2023-05-20T04:02:26;4.18;;;3.25;;
17369;SDS011;8802;52.402;4.920;2023-05-20T04:04:53;6.57;;;3.97;;
17369;SDS011;8802;52.402;4.920;2023-05-20T04:07:21;4.20;;;3.75;;
17369;SDS011;8802;52.402;4.920;2023-05-20T04:09:48;6.03;;;3.67;;
17369;SDS011;8802;52.402;4.920;2023-05-20T04:12:16;4.88;;;3.63;;
17369;SDS011;8802;52.402;4.920;2023-05-20T04:14:46;6.05;;;3.33;;
17369;SDS011;8802;52.402;4.920;2023-05-20T04:17:16;6.65;;;3.03;;
17369;SDS011;8802;52.402;4.920;2023-05-20T04:19:43;8.93;;;4.10;;
17369;SDS011;8802;52.402;4.920;2023-05-20T04:22:10;7.10;;;4.03;;
17369;SDS011;8802;52.402;4.920;2023-05-20T04:24:37;6.40;;;3.50;;
17369;SDS011;8802;52.402;4.920;2023-05-20T04:27:03;6.50;;;3.95;;
17369;SDS011;8802;52.402;4.920;2023-05-20T04:29:31;5.65;;;4.05;;
17369;SDS011;8802;52.402;4.920;2023-05-20T04:32:00;5.57;;;3.28;;
17369;SDS011;8802;52.402;4.920;2023-05-20T04:34:28;4.50;;;3.70;;
17369;SDS011;8802;52.402;4.920;2023-05-20T04:36:58;5.55;;;3.35;;
17369;SDS011;8802;52.402;4.920;2023-05-20T04:39:25;6.53;;;3.75;;
17369;SDS011;8802;52.402;4.920;2023-05-20T04:41:52;5.30;;;3.72;;
17369;SDS011;8802;52.402;4.920;2023-05-20T04:44:19;7.32;;;4.25;;
17369;SDS011;8802;52.402;4.920;2023-05-20T04:46:48;5.95;;;4.15;;
17369;SDS011;8802;52.402;4.920;2023-05-20T04:49:17;6.07;;;3.85;;
17369;SDS011;8802;52.402;4.920;2023-05-20T04:51:43;6.75;;;4.50;;
17369;SDS011;8802;52.402;4.920;2023-05-20T04:54:11;5.13;;;4.15;;
17369;SDS011;8802;52.402;4.920;2023-05-20T04:56:38;5.95;;;4.45;;
17369;SDS011;8802;52.402;4.920;2023-05-20T04:59:05;5.45;;;4.70;;
17369;SDS011;8802;52.402;4.920;2023-05-20T05:01:33;8.43;;;4.55;;
17369;SDS011;8802;52.402;4.920;2023-05-20T05:04:00;6.43;;;3.92;;
17369;SDS011;8802;52.402;4.920;2023-05-20T05:06:29;8.52;;;4.70;;
17369;SDS011;8802;52.402;4.920;2023-05-20T05:08:55;5.20;;;3.80;;
17369;SDS011;8802;52.402;4.920;2023-05-20T05:11:22;7.70;;;4.25;;
17369;SDS011;8802;52.402;4.920;2023-05-20T05:13:50;6.72;;;4.22;;
17369;SDS011;8802;52.402;4.920;2023-05-20T05:16:17;7.25;;;4.20;;
17369;SDS011;8802;52.402;4.920;2023-05-20T05:18:44;5.72;;;4.22;;
17369;SDS011;8802;52.402;4.920;2023-05-20T05:21:10;5.40;;;3.92;;
17369;SDS011;8802;52.402;4.920;2023-05-20T05:23:39;6.25;;;3.67;;
17369;SDS011;8802;52.402;4.920;2023-05-20T05:26:06;5.07;;;3.88;;
17369;SDS011;8802;52.402;4.920;2023-05-20T05:28:33;5.18;;;3.88;;
17369;SDS011;8802;52.402;4.920;2023-05-20T05:31:00;5.60;;;3.95;;
17369;SDS011;8802;52.402;4.920;2023-05-20T05:33:27;4.28;;;3.10;;
17369;SDS011;8802;52.402;4.920;2023-05-20T05:35:55;5.93;;;3.40;;
17369;SDS011;8802;52.402;4.920;2023-05-20T05:38:23;5.22;;;3.40;;
17369;SDS011;8802;52.402;4.920;2023-05-20T05:40:51;6.85;;;3.55;;
17369;SDS011;8802;52.402;4.920;2023-05-20T05:43:18;4.68;;;3.55;;
17369;SDS011;8802;52.402;4.920;2023-05-20T05:45:45;3.92;;;3.53;;
17369;SDS011;8802;52.402;4.920;2023-05-20T05:48:12;7.20;;;3.83;;
17369;SDS011;8802;52.402;4.920;2023-05-20T05:50:42;6.78;;;3.90;;
17369;SDS011;8802;52.402;4.920;2023-05-20T05:53:09;3.85;;;3.20;;
17369;SDS011;8802;52.402;4.920;2023-05-20T05:55:36;4.22;;;3.63;;
17369;SDS011;8802;52.402;4.920;2023-05-20T05:58:05;3.55;;;3.05;;
17369;SDS011;8802;52.402;4.920;2023-05-20T06:00:31;4.60;;;3.63;;
17369;SDS011;8802;52.402;4.920;2023-05-20T06:02:58;4.13;;;3.30;;
17369;SDS011;8802;52.402;4.920;2023-05-20T06:05:25;4.68;;;3.80;;
17369;SDS011;8802;52.402;4.920;2023-05-20T06:07:52;4.60;;;3.45;;
17369;SDS011;8802;52.402;4.920;2023-05-20T06:10:19;6.22;;;4.32;;
17369;SDS011;8802;52.402;4.920;2023-05-20T06:12:46;4.32;;;3.65;;
17369;SDS011;8802;52.402;4.920;2023-05-20T06:15:14;4.45;;;3.53;;
17369;SDS011;8802;52.402;4.920;2023-05-20T06:17:41;7.25;;;3.75;;
17369;SDS011;8802;52.402;4.920;2023-05-20T06:20:08;4.00;;;3.45;;
17369;SDS011;8802;52.402;4.920;2023-05-20T06:22:36;5.43;;;3.80;;
17369;SDS011;8802;52.402;4.920;2023-05-20T06:25:03;5.05;;;3.55;;
17369;SDS011;8802;52.402;4.920;2023-05-20T06:27:30;5.63;;;3.53;;
17369;SDS011;8802;52.402;4.920;2023-05-20T06:29:57;5.13;;;4.07;;
17369;SDS011;8802;52.402;4.920;2023-05-20T06:32:25;8.02;;;4.20;;
17369;SDS011;8802;52.402;4.920;2023-05-20T06:34:52;6.68;;;4.15;;
17369;SDS011;8802;52.402;4.920;2023-05-20T06:37:19;6.75;;;4.30;;
17369;SDS011;8802;52.402;4.920;2023-05-20T06:39:48;4.82;;;3.70;;
17369;SDS011;8802;52.402;4.920;2023-05-20T06:42:17;6.35;;;4.28;;
17369;SDS011;8802;52.402;4.920;2023-05-20T06:44:45;6.63;;;3.63;;
17369;SDS011;8802;52.402;4.920;2023-05-20T06:47:12;5.10;;;3.85;;
17369;SDS011;8802;52.402;4.920;2023-05-20T06:49:41;4.05;;;3.65;;
17369;SDS011;8802;52.402;4.920;2023-05-20T06:52:08;5.38;;;4.00;;
17369;SDS011;8802;52.402;4.920;2023-05-20T06:54:36;3.85;;;3.50;;
17369;SDS011;8802;52.402;4.920;2023-05-20T06:57:05;4.22;;;3.60;;
17369;SDS011;8802;52.402;4.920;2023-05-20T06:59:32;5.45;;;3.67;;
17369;SDS011;8802;52.402;4.920;2023-05-20T07:01:59;3.92;;;3.53;;
17369;SDS011;8802;52.402;4.920;2023-05-20T07:04:26;8.32;;;4.70;;
17369;SDS011;8802;52.402;4.920;2023-05-20T07:06:55;6.20;;;4.10;;
17369;SDS011;8802;52.402;4.920;2023-05-20T07:09:21;5.57;;;4.10;;
17369;SDS011;8802;52.402;4.920;2023-05-20T07:11:48;6.05;;;4.03;;
17369;SDS011;8802;52.402;4.920;2023-05-20T07:14:15;5.78;;;4.10;;
17369;SDS011;8802;52.402;4.920;2023-05-20T07:16:42;4.70;;;3.67;;
17369;SDS011;8802;52.402;4.920;2023-05-20T07:19:09;6.40;;;3.55;;
17369;SDS011;8802;52.402;4.920;2023-05-20T07:21:36;6.03;;;3.67;;
17369;SDS011;8802;52.402;4.920;2023-05-20T07:24:04;4.63;;;3.38;;
17369;SDS011;8802;52.402;4.920;2023-05-20T07:26:31;6.30;;;3.58;;
17369;SDS011;8802;52.402;4.920;2023-05-20T07:29:00;5.88;;;3.70;;
17369;SDS011;8802;52.402;4.920;2023-05-20T07:31:27;6.43;;;3.67;;
17369;SDS011;8802;52.402;4.920;2023-05-20T07:33:54;4.15;;;3.47;;
17369;SDS011;8802;52.402;4.920;2023-05-20T07:36:21;6.45;;;3.83;;
17369;SDS011;8802;52.402;4.920;2023-05-20T07:38:48;5.80;;;3.85;;
17369;SDS011;8802;52.402;4.920;2023-05-20T07:41:16;7.25;;;3.80;;
17369;SDS011;8802;52.402;4.920;2023-05-20T07:43:44;5.60;;;3.60;;
17369;SDS011;8802;52.402;4.920;2023-05-20T07:46:11;4.35;;;3.55;;
17369;SDS011;8802;52.402;4.920;2023-05-20T07:48:38;5.05;;;3.83;;
17369;SDS011;8802;52.402;4.920;2023-05-20T07:51:05;4.75;;;3.63;;
17369;SDS011;8802;52.402;4.920;2023-05-20T07:53:31;4.88;;;3.78;;
17369;SDS011;8802;52.402;4.920;2023-05-20T07:55:58;4.22;;;3.83;;
17369;SDS011;8802;52.402;4.920;2023-05-20T07:58:27;3.70;;;3.17;;
17369;SDS011;8802;52.402;4.920;2023-05-20T08:00:55;5.22;;;3.60;;
17369;SDS011;8802;52.402;4.920;2023-05-20T08:03:22;5.50;;;3.78;;
17369;SDS011;8802;52.402;4.920;2023-05-20T08:05:50;4.15;;;3.20;;
17369;SDS011;8802;52.402;4.920;2023-05-20T08:08:17;5.05;;;3.35;;
17369;SDS011;8802;52.402;4.920;2023-05-20T08:10:44;4.78;;;3.53;;
17369;SDS011;8802;52.402;4.920;2023-05-20T08:13:11;5.72;;;3.45;;
17369;SDS011;8802;52.402;4.920;2023-05-20T08:15:39;3.30;;;2.97;;
17369;SDS011;8802;52.402;4.920;2023-05-20T08:18:06;3.60;;;3.17;;
17369;SDS011;8802;52.402;4.920;2023-05-20T08:20:33;3.97;;;3.55;;
17369;SDS011;8802;52.402;4.920;2023-05-20T08:23:00;4.55;;;3.45;;
17369;SDS011;8802;52.402;4.920;2023-05-20T08:25:26;4.88;;;3.17;;
17369;SDS011;8802;52.402;4.920;2023-05-20T08:27:54;5.25;;;3.60;;
17369;SDS011;8802;52.402;4.920;2023-05-20T08:30:20;4.60;;;3.05;;
17369;SDS011;8802;52.402;4.920;2023-05-20T08:32:49;4.22;;;2.83;;
17369;SDS011;8802;52.402;4.920;2023-05-20T08:35:15;4.82;;;3.35;;
17369;SDS011;8802;52.402;4.920;2023-05-20T08:37:42;6.47;;;3.25;;
17369;SDS011;8802;52.402;4.920;2023-05-20T08:40:10;6.97;;;3.35;;
17369;SDS011;8802;52.402;4.920;2023-05-20T08:42:39;4.68;;;3.30;;
17369;SDS011;8802;52.402;4.920;2023-05-20T08:45:08;3.50;;;3.20;;
17369;SDS011;8802;52.402;4.920;2023-05-20T08:47:37;5.93;;;3.35;;
17369;SDS011;8802;52.402;4.920;2023-05-20T08:50:08;4.22;;;3.05;;
17369;SDS011;8802;52.402;4.920;2023-05-20T08:52:36;6.85;;;3.03;;
17369;SDS011;8802;52.402;4.920;2023-05-20T08:55:08;5.70;;;3.47;;
17369;SDS011;8802;52.402;4.920;2023-05-20T08:57:39;3.40;;;3.10;;
17369;SDS011;8802;52.402;4.920;2023-05-20T09:00:10;6.25;;;3.53;;
17369;SDS011;8802;52.402;4.920;2023-05-20T09:02:41;3.55;;;3.15;;
17369;SDS011;8802;52.402;4.920;2023-05-20T09:05:10;5.65;;;3.30;;
17369;SDS011;8802;52.402;4.920;2023-05-20T09:07:37;5.00;;;3.25;;
17369;SDS011;8802;52.402;4.920;2023-05-20T09:10:06;4.95;;;3.20;;
17369;SDS011;8802;52.402;4.920;2023-05-20T09:12:34;6.38;;;3.90;;
17369;SDS011;8802;52.402;4.920;2023-05-20T09:15:01;4.45;;;3.60;;
17369;SDS011;8802;52.402;4.920;2023-05-20T09:17:29;4.57;;;3.00;;
17369;SDS011;8802;52.402;4.920;2023-05-20T09:19:56;3.88;;;3.05;;
17369;SDS011;8802;52.402;4.920;2023-05-20T09:22:24;5.75;;;3.05;;
17369;SDS011;8802;52.402;4.920;2023-05-20T09:24:53;3.08;;;2.65;;
17369;SDS011;8802;52.402;4.920;2023-05-20T09:27:20;4.38;;;2.30;;
17369;SDS011;8802;52.402;4.920;2023-05-20T09:29:48;3.65;;;3.00;;
17369;SDS011;8802;52.402;4.920;2023-05-20T09:32:15;4.05;;;3.20;;
17369;SDS011;8802;52.402;4.920;2023-05-20T09:34:44;4.20;;;3.00;;
17369;SDS011;8802;52.402;4.920;2023-05-20T09:37:12;4.07;;;3.13;;
17369;SDS011;8802;52.402;4.920;2023-05-20T09:39:45;5.95;;;3.38;;
17369;SDS011;8802;52.402;4.920;2023-05-20T09:42:20;4.80;;;3.08;;
17369;SDS011;8802;52.402;4.920;2023-05-20T09:44:50;6.55;;;3.30;;
17369;SDS011;8802;52.402;4.920;2023-05-20T09:47:19;4.80;;;3.05;;
17369;SDS011;8802;52.402;4.920;2023-05-20T09:49:46;4.13;;;3.13;;
17369;SDS011;8802;52.402;4.920;2023-05-20T09:52:13;6.97;;;3.08;;
17369;SDS011;8802;52.402;4.920;2023-05-20T09:54:41;5.00;;;3.28;;
17369;SDS011;8802;52.402;4.920;2023-05-20T09:57:10;5.30;;;3.35;;
17369;SDS011;8802;52.402;4.920;2023-05-20T09:59:39;5.20;;;2.63;;
17369;SDS011;8802;52.402;4.920;2023-05-20T10:02:06;3.38;;;3.08;;
17369;SDS011;8802;52.402;4.920;2023-05-20T10:04:34;3.53;;;2.95;;
17369;SDS011;8802;52.402;4.920;2023-05-20T10:10:21;3.25;;;2.95;;
17369;SDS011;8802;52.402;4.920;2023-05-20T10:12:59;2.90;;;2.60;;
17369;SDS011;8802;52.402;4.920;2023-05-20T10:15:40;3.95;;;2.70;;
17369;SDS011;8802;52.402;4.920;2023-05-20T10:18:16;4.35;;;2.75;;
17369;SDS011;8802;52.402;4.920;2023-05-20T10:20:53;4.68;;;2.83;;
17369;SDS011;8802;52.402;4.920;2023-05-20T10:23:20;3.25;;;2.95;;
17369;SDS011;8802;52.402;4.920;2023-05-20T10:25:52;4.07;;;2.83;;
17369;SDS011;8802;52.402;4.920;2023-05-20T10:28:29;5.95;;;2.78;;
17369;SDS011;8802;52.402;4.920;2023-05-20T10:30:57;4.93;;;2.40;;
17369;SDS011;8802;52.402;4.920;2023-05-20T10:33:25;4.80;;;2.53;;
17369;SDS011;8802;52.402;4.920;2023-05-20T10:35:52;4.50;;;2.70;;
17369;SDS011;8802;52.402;4.920;2023-05-20T10:38:23;4.53;;;2.45;;
17369;SDS011;8802;52.402;4.920;2023-05-20T10:40:51;3.60;;;2.28;;
17369;SDS011;8802;52.402;4.920;2023-05-20T10:43:24;2.60;;;2.38;;
17369;SDS011;8802;52.402;4.920;2023-05-20T10:45:53;2.67;;;2.15;;
17369;SDS011;8802;52.402;4.920;2023-05-20T10:48:24;2.55;;;1.90;;
17369;SDS011;8802;52.402;4.920;2023-05-20T10:50:53;5.28;;;2.58;;
17369;SDS011;8802;52.402;4.920;2023-05-20T10:53:22;4.32;;;2.00;;
17369;SDS011;8802;52.402;4.920;2023-05-20T10:55:51;4.00;;;2.20;;
17369;SDS011;8802;52.402;4.920;2023-05-20T10:58:20;2.83;;;1.95;;
17369;SDS011;8802;52.402;4.920;2023-05-20T11:00:48;2.35;;;1.95;;
17369;SDS011;8802;52.402;4.920;2023-05-20T11:03:15;2.42;;;2.22;;
17369;SDS011;8802;52.402;4.920;2023-05-20T11:05:44;2.95;;;2.15;;
17369;SDS011;8802;52.402;4.920;2023-05-20T11:08:12;2.03;;;1.50;;
17369;SDS011;8802;52.402;4.920;2023-05-20T11:10:40;3.85;;;2.10;;
17369;SDS011;8802;52.402;4.920;2023-05-20T11:13:11;3.13;;;2.17;;
17369;SDS011;8802;52.402;4.920;2023-05-20T11:15:39;4.35;;;2.10;;
17369;SDS011;8802;52.402;4.920;2023-05-20T11:18:07;4.47;;;2.30;;
17369;SDS011;8802;52.402;4.920;2023-05-20T11:20:37;4.53;;;2.50;;
17369;SDS011;8802;52.402;4.920;2023-05-20T11:23:04;2.45;;;2.15;;
17369;SDS011;8802;52.402;4.920;2023-05-20T11:25:31;3.72;;;2.03;;
17369;SDS011;8802;52.402;4.920;2023-05-20T11:27:58;2.55;;;2.10;;
17369;SDS011;8802;52.402;4.920;2023-05-20T11:30:26;3.58;;;1.85;;
17369;SDS011;8802;52.402;4.920;2023-05-20T11:32:55;3.53;;;2.00;;
17369;SDS011;8802;52.402;4.920;2023-05-20T11:35:24;3.47;;;2.30;;
17369;SDS011;8802;52.402;4.920;2023-05-20T11:37:53;3.53;;;1.88;;
17369;SDS011;8802;52.402;4.920;2023-05-20T11:40:22;3.67;;;2.40;;
17369;SDS011;8802;52.402;4.920;2023-05-20T11:42:51;4.82;;;2.22;;
17369;SDS011;8802;52.402;4.920;2023-05-20T11:45:20;2.38;;;2.13;;
17369;SDS011;8802;52.402;4.920;2023-05-20T11:47:58;8.88;;;2.47;;
17369;SDS011;8802;52.402;4.920;2023-05-20T11:50:26;2.45;;;1.73;;
17369;SDS011;8802;52.402;4.920;2023-05-20T11:52:56;2.70;;;1.88;;
17369;SDS011;8802;52.402;4.920;2023-05-20T11:55:24;3.75;;;2.38;;
17369;SDS011;8802;52.402;4.920;2023-05-20T11:57:51;5.03;;;2.10;;
17369;SDS011;8802;52.402;4.920;2023-05-20T12:00:20;3.03;;;2.20;;
17369;SDS011;8802;52.402;4.920;2023-05-20T12:02:47;4.50;;;2.10;;
17369;SDS011;8802;52.402;4.920;2023-05-20T12:05:15;3.92;;;1.75;;
17369;SDS011;8802;52.402;4.920;2023-05-20T12:07:43;2.55;;;2.15;;
17369;SDS011;8802;52.402;4.920;2023-05-20T12:10:10;6.30;;;2.22;;
17369;SDS011;8802;52.402;4.920;2023-05-20T12:12:37;3.70;;;2.20;;
17369;SDS011;8802;52.402;4.920;2023-05-20T12:15:05;2.33;;;2.08;;
17369;SDS011;8802;52.402;4.920;2023-05-20T12:17:42;2.35;;;1.80;;
17369;SDS011;8802;52.402;4.920;2023-05-20T12:20:11;2.45;;;1.50;;
17369;SDS011;8802;52.402;4.920;2023-05-20T12:22:41;7.80;;;2.20;;
17369;SDS011;8802;52.402;4.920;2023-05-20T12:25:09;2.28;;;1.60;;
17369;SDS011;8802;52.402;4.920;2023-05-20T12:27:37;2.35;;;1.98;;
17369;SDS011;8802;52.402;4.920;2023-05-20T12:30:05;3.33;;;1.77;;
17369;SDS011;8802;52.402;4.920;2023-05-20T12:32:33;2.92;;;1.92;;
17369;SDS011;8802;52.402;4.920;2023-05-20T12:35:00;2.95;;;2.10;;
17369;SDS011;8802;52.402;4.920;2023-05-20T12:37:27;2.10;;;1.77;;
17369;SDS011;8802;52.402;4.920;2023-05-20T12:39:56;4.65;;;2.03;;
17369;SDS011;8802;52.402;4.920;2023-05-20T12:42:22;2.55;;;2.13;;
17369;SDS011;8802;52.402;4.920;2023-05-20T12:44:49;2.97;;;2.17;;
17369;SDS011;8802;52.402;4.920;2023-05-20T12:47:16;5.25;;;1.90;;
17369;SDS011;8802;52.402;4.920;2023-05-20T12:49:44;3.72;;;1.83;;
17369;SDS011;8802;52.402;4.920;2023-05-20T12:52:11;4.05;;;1.88;;
17369;SDS011;8802;52.402;4.920;2023-05-20T12:54:37;3.25;;;1.85;;
17369;SDS011;8802;52.402;4.920;2023-05-20T12:57:06;3.10;;;2.03;;
17369;SDS011;8802;52.402;4.920;2023-05-20T12:59:33;4.90;;;2.33;;
17369;SDS011;8802;52.402;4.920;2023-05-20T13:02:00;5.05;;;2.08;;
17369;SDS011;8802;52.402;4.920;2023-05-20T13:04:26;3.35;;;2.17;;
17369;SDS011;8802;52.402;4.920;2023-05-20T13:06:53;3.75;;;2.00;;
17369;SDS011;8802;52.402;4.920;2023-05-20T13:09:20;2.35;;;2.00;;
17369;SDS011;8802;52.402;4.920;2023-05-20T13:11:47;5.00;;;1.92;;
17369;SDS011;8802;52.402;4.920;2023-05-20T13:14:15;2.80;;;1.77;;
17369;SDS011;8802;52.402;4.920;2023-05-20T13:16:42;5.40;;;2.00;;
17369;SDS011;8802;52.402;4.920;2023-05-20T13:19:09;3.17;;;1.98;;
17369;SDS011;8802;52.402;4.920;2023-05-20T13:21:36;4.10;;;2.30;;
17369;SDS011;8802;52.402;4.920;2023-05-20T13:24:03;3.38;;;1.60;;
17369;SDS011;8802;52.402;4.920;2023-05-20T13:26:30;2.40;;;2.20;;
17369;SDS011;8802;52.402;4.920;2023-05-20T13:28:57;3.30;;;1.52;;
17369;SDS011;8802;52.402;4.920;2023-05-20T13:31:25;2.47;;;1.65;;
17369;SDS011;8802;52.402;4.920;2023-05-20T13:33:52;2.53;;;1.75;;
17369;SDS011;8802;52.402;4.920;2023-05-20T13:36:19;4.40;;;1.67;;
17369;SDS011;8802;52.402;4.920;2023-05-20T13:38:46;3.38;;;2.00;;
17369;SDS011;8802;52.402;4.920;2023-05-20T13:41:13;2.85;;;1.85;;
17369;SDS011;8802;52.402;4.920;2023-05-20T13:43:40;3.45;;;1.90;;
17369;SDS011;8802;52.402;4.920;2023-05-20T13:46:07;2.28;;;1.80;;
17369;SDS011;8802;52.402;4.920;2023-05-20T13:48:35;2.42;;;1.50;;
17369;SDS011;8802;52.402;4.920;2023-05-20T13:51:02;3.47;;;2.08;;
17369;SDS011;8802;52.402;4.920;2023-05-20T13:53:29;4.03;;;1.80;;
17369;SDS011;8802;52.402;4.920;2023-05-20T13:55:56;3.03;;;1.73;;
17369;SDS011;8802;52.402;4.920;2023-05-20T13:58:23;3.85;;;2.10;;
17369;SDS011;8802;52.402;4.920;2023-05-20T14:00:50;2.25;;;1.70;;
17369;SDS011;8802;52.402;4.920;2023-05-20T14:03:17;2.28;;;1.48;;
17369;SDS011;8802;52.402;4.920;2023-05-20T14:05:46;2.13;;;1.70;;
17369;SDS011;8802;52.402;4.920;2023-05-20T14:08:12;4.00;;;1.60;;
17369;SDS011;8802;52.402;4.920;2023-05-20T14:10:39;3.78;;;1.63;;
17369;SDS011;8802;52.402;4.920;2023-05-20T14:13:06;2.72;;;1.90;;
17369;SDS011;8802;52.402;4.920;2023-05-20T14:15:34;2.78;;;1.90;;
17369;SDS011;8802;52.402;4.920;2023-05-20T14:18:01;2.08;;;1.83;;
17369;SDS011;8802;52.402;4.920;2023-05-20T14:20:28;5.72;;;1.80;;
17369;SDS011;8802;52.402;4.920;2023-05-20T14:22:56;3.50;;;1.95;;
17369;SDS011;8802;52.402;4.920;2023-05-20T14:25:24;4.90;;;2.00;;
17369;SDS011;8802;52.402;4.920;2023-05-20T14:27:51;3.53;;;1.85;;
17369;SDS011;8802;52.402;4.920;2023-05-20T14:30:18;1.88;;;1.63;;
17369;SDS011;8802;52.402;4.920;2023-05-20T14:32:45;4.50;;;2.15;;
17369;SDS011;8802;52.402;4.920;2023-05-20T14:35:12;2.20;;;2.00;;
17369;SDS011;8802;52.402;4.920;2023-05-20T14:37:40;3.17;;;2.40;;
17369;SDS011;8802;52.402;4.920;2023-05-20T14:40:09;6.53;;;2.58;;
17369;SDS011;8802;52.402;4.920;2023-05-20T14:42:36;4.53;;;2.53;;
17369;SDS011;8802;52.402;4.920;2023-05-20T14:45:03;5.63;;;2.40;;
17369;SDS011;8802;52.402;4.920;2023-05-20T14:47:31;5.57;;;2.53;;
17369;SDS011;8802;52.402;4.920;2023-05-20T14:49:58;4.93;;;2.63;;
17369;SDS011;8802;52.402;4.920;2023-05-20T14:52:25;4.63;;;1.83;;
17369;SDS011;8802;52.402;4.920;2023-05-20T14:54:52;3.17;;;2.17;;
17369;SDS011;8802;52.402;4.920;2023-05-20T14:57:22;3.47;;;2.30;;
17369;SDS011;8802;52.402;4.920;2023-05-20T14:59:48;3.83;;;2.33;;
17369;SDS011;8802;52.402;4.920;2023-05-20T15:02:16;2.95;;;2.20;;
17369;SDS011;8802;52.402;4.920;2023-05-20T15:04:43;2.30;;;2.10;;
17369;SDS011;8802;52.402;4.920;2023-05-20T15:07:12;3.05;;;2.63;;